サンパウロ/グアルーリョス の空港の天気 - METARとTAF

グアルーリョス国際空港 (サンパウロ) ( SBGR / GRU ) - ブラジル サンパウロ州サンパウロ市
飛行場実況気象(Metar)
観測時間10/01 13:00 BRT (10/01 16:00 UTC)
風向・風速北北西 4m/s
視程10km以上
天気現象
なし
気温36℃
湿度25%
気圧1014hPa
METARSBGR 011600Z 34007KT CAVOK 36/13 Q1014
過去の天気等 Google飛行場航空写真 Wunderground天気予報

過去48時間のMETAR

飛行場予報(TAF)
発表時間: 10/01 06:30 BRT (10/01 09:30 UTC)
予報対象時間: 1日9時 BRT ~ 2日15時 BRT
風向・風速北東 3m/s
視程10km以上
なし
1日10時 BRT ~ 1日12時 BRT に徐々に
風向・風速北北西 4m/s
1日15時 BRT から 確率 30% で
天気現象
全天の4割程度の雲 雲底高度 910m
少しの積乱雲 雲底高度 1220m
1日20時 BRT ~ 1日22時 BRT に徐々に
風向・風速北東 3m/s
2日7時 BRT ~ 2日9時 BRT に徐々に
風向・風速北 3m/s
2日10時 BRT ~ 2日12時 BRT に徐々に
風向・風速北西 5m/s
少しの雲 雲底高度 1220m
TAF SBGR 010930Z 0112/0218 04005KT CAVOK TX36/0118Z TN21/0209Z
BECMG 0113/0115 33008KT
PROB30 0118/0123 TS SCT030 FEW040CB
BECMG 0123/0201 04005KT
BECMG 0210/0212 36005KT
BECMG 0213/0215 32010KT FEW040 RMK PGN